Time;durP1;ratioP1;P1;durP2;ratioP2;P2;SDS_P1;SDS_P2;PMS_P1;PMS_P2;Temp;Humidity;BMP_temperature;BMP_pressure;BME280_temperature;BME280_humidity;BME280_pressure;Samples;Min_cycle;Max_cycle;Signal;HPM_P1;HPM_P2
2022/05/02 00:00:09;;;;;;;6.68;4.97;;;;;;;14.03;49.91;99609.34;5013904;28;20017;-88
2022/05/02 00:02:35;;;;;;;8.93;5.28;;;;;;;15.26;50.04;99808.47;5014008;28;20033;-88
2022/05/02 00:05:01;;;;;;;7.13;5.38;;;;;;;14.36;49.80;99686.50;5031345;28;20505;-88
2022/05/02 00:07:26;;;;;;;7.75;5.65;;;;;;;14.40;50.00;99709.00;5031172;28;20018;-89
2022/05/02 00:09:52;;;;;;;8.95;5.40;;;;;;;14.76;50.17;99792.97;5017137;28;20464;-88
2022/05/02 00:12:17;;;;;;;8.38;5.65;;;;;;;14.72;50.49;99789.06;5035082;28;20060;-88
2022/05/02 00:14:43;;;;;;;8.15;5.72;;;;;;;14.53;50.49;99772.03;5035207;28;20029;-88
2022/05/02 00:17:08;;;;;;;6.43;5.40;;;;;;;14.31;50.53;99742.88;5034927;28;20021;-89
2022/05/02 00:19:34;;;;;;;7.78;5.15;;;;;;;13.86;50.65;99709.72;5034873;28;20029;-88
2022/05/02 00:21:59;;;;;;;8.52;5.35;;;;;;;14.29;50.64;99781.28;5016804;28;20108;-88
2022/05/02 00:24:25;;;;;;;6.90;5.90;;;;;;;14.22;50.96;99788.38;5034790;28;20030;-87
2022/05/02 00:26:50;;;;;;;10.98;6.65;;;;;;;13.99;51.07;99765.56;5017130;28;20013;-88
2022/05/02 00:29:16;;;;;;;8.23;5.82;;;;;;;14.23;51.38;99827.22;5034689;28;20025;-88
2022/05/02 00:31:41;;;;;;;6.60;5.88;;;;;;;13.65;51.28;99710.63;5024602;28;20032;-87
2022/05/02 00:34:07;;;;;;;8.15;5.57;;;;;;;13.44;51.59;99676.19;5035979;28;20026;-89
2022/05/02 00:36:32;;;;;;;10.57;5.90;;;;;;;14.04;51.50;99783.56;5034468;28;20482;-89
2022/05/02 00:38:57;;;;;;;8.02;6.10;;;;;;;13.25;51.73;99652.97;5034649;28;20029;-88
2022/05/02 00:41:23;;;;;;;8.73;5.95;;;;;;;13.68;51.89;99744.72;5034671;28;20026;-88
2022/05/02 00:43:48;;;;;;;6.20;5.60;;;;;;;13.39;52.05;99688.38;5034308;28;20421;-88
2022/05/02 00:46:24;;;;;;;8.45;5.97;;;;;;;14.02;51.84;99769.66;5034464;28;20028;-89
2022/05/02 00:48:50;;;;;;;8.18;6.18;;;;;;;14.01;51.94;99773.31;5016446;28;20030;-88
2022/05/02 00:51:16;;;;;;;6.00;5.40;;;;;;;13.42;52.03;99682.69;5034307;28;20513;-89
2022/05/02 00:53:43;;;;;;;8.40;5.60;;;;;;;13.31;51.57;99660.97;5034220;28;20064;-89
2022/05/02 00:56:09;;;;;;;8.05;6.13;;;;;;;13.23;51.72;99637.25;5034176;28;20033;-88
2022/05/02 00:58:35;;;;;;;7.68;5.75;;;;;;;13.79;51.73;99732.75;5033873;28;20506;-89
2022/05/02 01:01:02;;;;;;;6.25;5.65;;;;;;;13.79;51.81;99723.97;5016349;28;20498;-89
2022/05/02 01:03:27;;;;;;;8.43;6.15;;;;;;;14.10;51.74;99760.72;5034091;28;20026;-89
2022/05/02 01:08:38;;;;;;;8.38;6.28;;;;;;;14.01;51.63;99762.72;5034203;28;20459;-89
2022/05/02 01:11:04;;;;;;;9.18;6.72;;;;;;;13.82;51.65;99732.38;5033810;28;20033;-88
2022/05/02 01:13:43;;;;;;;7.90;5.60;;;;;;;13.07;51.73;99615.47;5033813;28;20549;-89
2022/05/02 01:16:12;;;;;;;6.97;5.63;;;;;;;13.90;52.07;99760.59;5016087;28;20032;-88
2022/05/02 01:18:37;;;;;;;9.02;5.45;;;;;;;13.35;51.73;99677.31;5033752;28;20179;-89
2022/05/02 01:21:14;;;;;;;8.77;5.97;;;;;;;13.88;52.05;99771.41;5033981;28;20029;-88
2022/05/02 01:23:41;;;;;;;7.97;6.32;;;;;;;13.67;51.75;99742.25;5033909;28;20032;-89
2022/05/02 01:26:07;;;;;;;7.60;5.68;;;;;;;13.72;51.79;99752.31;5033913;28;20041;-89
2022/05/02 01:28:39;;;;;;;7.97;5.95;;;;;;;12.39;51.87;99576.16;5033795;28;20025;-89
2022/05/02 01:31:04;;;;;;;7.47;6.45;;;;;;;13.27;52.11;99699.50;5033971;28;20030;-88
2022/05/02 01:33:30;;;;;;;10.68;6.30;;;;;;;13.57;52.32;99752.41;5033838;28;20102;-89
2022/05/02 01:35:56;;;;;;;11.20;7.38;;;;;;;13.20;52.18;99732.25;5015573;28;20084;-89
2022/05/02 01:38:22;;;;;;;8.88;6.20;;;;;;;12.94;52.48;99655.94;5033628;28;20498;-89
2022/05/02 01:40:47;;;;;;;8.85;6.10;;;;;;;12.89;52.72;99642.44;5015909;28;20109;-89
2022/05/02 01:43:12;;;;;;;10.30;6.50;;;;;;;13.18;52.83;99710.41;5033482;28;20025;-89
2022/05/02 01:45:38;;;;;;;8.57;5.90;;;;;;;12.85;52.55;99647.31;5033660;28;20438;-90
2022/05/02 01:48:04;;;;;;;8.20;6.10;;;;;;;13.40;52.49;99735.13;5033430;28;20025;-89
2022/05/02 01:50:29;;;;;;;8.85;6.82;;;;;;;13.20;52.38;99703.91;5016022;28;20030;-90
2022/05/02 01:52:55;;;;;;;9.40;7.45;;;;;;;12.68;52.62;99619.44;5033970;28;20029;-89
2022/05/02 01:55:20;;;;;;;8.50;6.95;;;;;;;12.66;52.78;99626.75;5033401;28;20033;-89
2022/05/02 01:57:47;;;;;;;10.13;7.03;;;;;;;12.82;53.32;99705.16;5032936;28;20042;-89
2022/05/02 02:00:13;;;;;;;9.60;7.38;;;;;;;12.82;53.46;99660.94;5032987;28;20021;-89
2022/05/02 02:02:38;;;;;;;9.55;6.47;;;;;;;13.08;53.30;99708.06;5015369;28;20036;-89
2022/05/02 02:07:48;;;;;;;8.50;6.47;;;;;;;12.71;53.36;99637.59;5033201;28;20097;-89
2022/05/02 02:10:14;;;;;;;8.32;6.55;;;;;;;12.57;53.37;99594.25;5015093;28;20033;-89
2022/05/02 02:12:39;;;;;;;7.72;5.95;;;;;;;12.47;53.23;99599.03;5015103;28;20061;-89
2022/05/02 02:15:06;;;;;;;7.05;5.90;;;;;;;12.73;53.29;99652.28;5032671;28;20052;-89
2022/05/02 02:17:31;;;;;;;6.88;5.88;;;;;;;12.62;52.98;99612.22;5032695;28;20022;-89
2022/05/02 02:19:57;;;;;;;8.40;6.03;;;;;;;13.02;53.18;99671.72;5015308;28;20025;-89
2022/05/02 02:22:22;;;;;;;8.20;6.38;;;;;;;12.56;53.32;99583.84;5015074;28;20025;-89
2022/05/02 02:24:48;;;;;;;7.15;6.45;;;;;;;13.21;53.41;99684.34;5032980;28;20033;-89
2022/05/02 02:27:14;;;;;;;9.40;7.03;;;;;;;12.52;53.29;99564.03;5014896;28;20017;-89
2022/05/02 02:29:39;;;;;;;8.38;6.35;;;;;;;13.21;53.21;99668.44;5014713;28;20033;-89
2022/05/02 02:32:05;;;;;;;12.30;7.15;;;;;;;12.28;53.16;99514.94;5031747;28;20052;-89
2022/05/02 02:34:31;;;;;;;8.43;6.95;;;;;;;12.26;52.88;99511.66;5032279;28;20033;-89
2022/05/02 02:36:57;;;;;;;7.38;6.65;;;;;;;13.19;53.06;99678.41;5026223;28;20032;-89
2022/05/02 02:39:22;;;;;;;7.50;6.68;;;;;;;12.88;53.39;99640.81;5025457;28;20391;-90
2022/05/02 02:41:48;;;;;;;7.72;6.88;;;;;;;12.39;53.42;99554.97;5041928;28;20025;-90
2022/05/02 02:44:13;;;;;;;10.38;7.50;;;;;;;12.94;53.24;99685.91;5024315;28;20413;-89
2022/05/02 02:46:39;;;;;;;7.25;6.35;;;;;;;12.41;53.62;99597.97;5043211;28;20033;-89
2022/05/02 02:49:04;;;;;;;7.15;6.43;;;;;;;12.18;53.44;99543.56;5022814;28;20030;-89
2022/05/02 02:51:30;;;;;;;10.18;7.32;;;;;;;12.91;53.65;99665.09;5015849;28;20513;-89
2022/05/02 02:53:55;;;;;;;10.10;7.03;;;;;;;12.67;53.64;99654.88;5032310;28;20037;-89
2022/05/02 02:56:21;;;;;;;7.32;6.43;;;;;;;12.88;53.76;99672.59;5032489;28;20036;-89
2022/05/02 02:58:46;;;;;;;8.35;7.20;;;;;;;12.52;53.63;99633.72;5032211;28;20095;-89
2022/05/02 03:01:12;;;;;;;8.75;7.20;;;;;;;11.91;53.21;99550.38;5032108;28;20530;-89
2022/05/02 03:03:37;;;;;;;8.57;6.85;;;;;;;12.77;53.39;99718.97;5014295;28;20418;-89
2022/05/02 03:06:05;;;;;;;10.73;6.70;;;;;;;12.27;53.42;99619.19;5032158;28;20103;-88
2022/05/02 03:08:36;;;;;;;9.27;6.18;;;;;;;12.31;53.22;99644.28;5014360;28;20105;-89
2022/05/02 03:11:02;;;;;;;9.93;6.32;;;;;;;12.57;53.57;99676.34;5031911;28;20022;-89
2022/05/02 03:13:29;;;;;;;7.72;6.28;;;;;;;12.66;53.86;99695.63;5031818;28;20029;-89
2022/05/02 03:15:54;;;;;;;9.35;6.47;;;;;;;12.07;53.75;99618.97;5014210;28;20056;-90
2022/05/02 03:18:20;;;;;;;8.93;6.30;;;;;;;12.42;53.43;99680.88;5014135;28;20151;-90
2022/05/02 03:20:46;;;;;;;10.20;6.55;;;;;;;11.68;54.00;99572.44;5014438;28;20030;-90
2022/05/02 03:23:11;;;;;;;6.93;6.22;;;;;;;10.55;54.10;99399.34;5031676;28;20028;-89
2022/05/02 03:25:37;;;;;;;10.70;7.05;;;;;;;11.72;54.03;99608.09;5014180;28;20104;-89
2022/05/02 03:28:02;;;;;;;10.38;6.95;;;;;;;11.96;53.89;99659.94;5031843;28;20100;-90
2022/05/02 03:30:28;;;;;;;9.88;7.07;;;;;;;10.85;54.13;99505.81;5031801;28;20151;-89
2022/05/02 03:32:53;;;;;;;8.55;6.82;;;;;;;12.29;53.97;99752.19;5031394;28;20559;-89
2022/05/02 03:35:19;;;;;;;10.45;6.72;;;;;;;11.89;54.15;99651.13;5031339;28;20033;-89
2022/05/02 03:37:44;;;;;;;9.65;6.97;;;;;;;12.03;54.10;99705.84;5031570;28;20116;-89
2022/05/02 03:40:10;;;;;;;10.52;7.28;;;;;;;11.55;54.24;99608.47;5013840;28;20409;-89
2022/05/02 03:42:37;;;;;;;9.40;7.65;;;;;;;12.13;53.83;99708.22;5015879;28;20026;-90
2022/05/02 03:45:04;;;;;;;10.00;7.63;;;;;;;12.09;53.63;99723.63;5035880;28;20517;-89
2022/05/02 03:47:29;;;;;;;10.18;7.50;;;;;;;11.77;54.05;99673.69;5017970;28;20060;-90
2022/05/02 03:49:55;;;;;;;11.10;7.93;;;;;;;11.44;54.09;99599.16;5035839;28;20030;-90
2022/05/02 03:52:20;;;;;;;8.75;7.05;;;;;;;11.77;54.06;99640.13;5035623;28;20033;-89
2022/05/02 03:54:46;;;;;;;10.18;7.25;;;;;;;11.33;53.81;99567.91;5036027;28;20029;-89
2022/05/02 03:57:11;;;;;;;9.50;6.93;;;;;;;11.81;54.22;99656.47;5035572;28;20053;-89
2022/05/02 03:59:36;;;;;;;9.40;7.80;;;;;;;11.65;54.42;99611.66;5035742;28;20033;-89
2022/05/02 04:02:02;;;;;;;10.88;7.75;;;;;;;11.31;53.92;99549.59;5017940;28;20025;-89
2022/05/02 04:04:27;;;;;;;9.02;7.80;;;;;;;11.21;53.99;99521.78;5017600;28;20021;-89
2022/05/02 04:06:53;;;;;;;11.15;8.45;;;;;;;12.05;54.13;99664.13;5035330;28;20034;-89
2022/05/02 04:09:18;;;;;;;10.65;8.23;;;;;;;12.07;54.03;99661.31;5017632;28;20086;-90
2022/05/02 04:11:44;;;;;;;11.52;8.23;;;;;;;11.30;53.77;99526.81;5017655;28;20143;-89
2022/05/02 04:14:09;;;;;;;10.00;8.48;;;;;;;12.00;53.90;99641.88;5017596;28;20410;-89
2022/05/02 04:16:35;;;;;;;11.95;8.25;;;;;;;11.51;54.34;99549.84;5017266;28;20544;-90
2022/05/02 04:19:00;;;;;;;9.93;8.20;;;;;;;11.85;54.18;99601.38;5017085;28;20036;-89
2022/05/02 04:21:25;;;;;;;12.38;9.40;;;;;;;11.46;54.04;99560.16;5016990;28;20021;-89
2022/05/02 04:23:51;;;;;;;10.63;8.43;;;;;;;11.86;54.29;99603.81;5017094;28;20473;-89
2022/05/02 04:26:16;;;;;;;10.52;8.30;;;;;;;11.61;54.52;99554.84;5034723;28;20055;-89
2022/05/02 04:28:42;;;;;;;9.75;8.73;;;;;;;12.03;54.37;99621.16;5016804;28;20021;-89
2022/05/02 04:31:07;;;;;;;12.13;9.48;;;;;;;11.71;54.09;99553.56;5016941;28;20414;-89
2022/05/02 04:33:32;;;;;;;11.50;8.25;;;;;;;10.82;54.11;99414.53;5034821;28;20025;-90
2022/05/02 04:35:58;;;;;;;11.27;10.07;;;;;;;11.45;54.92;99513.56;5017222;28;20033;-89
2022/05/02 04:38:24;;;;;;;13.50;9.48;;;;;;;11.76;54.45;99556.47;5017382;28;20052;-89
2022/05/02 04:40:49;;;;;;;10.15;8.95;;;;;;;12.52;54.61;99672.63;5017181;28;20434;-90
2022/05/02 04:43:14;;;;;;;9.52;8.63;;;;;;;12.60;54.82;99670.66;5017052;28;20509;-89
2022/05/02 04:45:40;;;;;;;11.07;9.23;;;;;;;12.34;55.24;99636.78;5034500;28;20029;-89
2022/05/02 04:48:06;;;;;;;10.95;8.93;;;;;;;12.37;54.75;99625.00;5016823;28;20088;-89
2022/05/02 04:50:31;;;;;;;11.80;9.50;;;;;;;12.39;54.86;99618.50;5034575;28;20155;-90
2022/05/02 04:52:57;;;;;;;13.25;9.85;;;;;;;12.37;55.28;99628.47;5034744;28;20022;-89
2022/05/02 04:55:22;;;;;;;14.75;9.25;;;;;;;12.07;55.61;99584.56;5016278;28;20032;-90
2022/05/02 04:57:48;;;;;;;11.48;9.75;;;;;;;12.79;55.32;99679.88;5034361;28;20054;-89
2022/05/02 05:00:17;;;;;;;10.48;8.38;;;;;;;12.79;55.86;99687.81;5034416;28;20032;-89
2022/05/02 05:02:42;;;;;;;14.45;9.52;;;;;;;12.28;55.83;99600.47;5016862;28;20048;-89
2022/05/02 05:05:08;;;;;;;13.32;9.15;;;;;;;12.43;56.13;99607.53;5034216;28;20486;-88
2022/05/02 05:07:36;;;;;;;14.35;9.25;;;;;;;12.37;55.98;99601.16;5034353;28;20031;-90
2022/05/02 05:10:01;;;;;;;11.40;9.07;;;;;;;13.09;56.83;99690.31;5034443;28;20026;-89
2022/05/02 05:12:37;;;;;;;10.23;8.43;;;;;;;12.52;56.48;99583.41;5034201;28;20034;-89
2022/05/02 05:18:29;;;;;;;11.00;9.00;;;;;;;13.42;57.30;99680.88;5033777;28;20429;-89
2022/05/02 05:21:03;;;;;;;12.88;9.20;;;;;;;12.60;57.32;99546.19;5033929;28;20021;-89
2022/05/02 05:23:31;;;;;;;13.15;9.35;;;;;;;13.54;56.63;99681.97;5033983;28;20486;-89
2022/05/02 05:26:15;;;;;;;10.02;8.98;;;;;;;13.59;56.56;99695.47;5033711;28;20033;-89
2022/05/02 05:29:12;;;;;;;12.60;9.35;;;;;;;13.74;56.44;99702.50;5033672;28;20509;-89
2022/05/02 05:31:40;;;;;;;12.63;9.07;;;;;;;13.75;56.66;99698.84;5033681;28;20107;-89
2022/05/02 05:34:24;;;;;;;11.98;9.10;;;;;;;13.87;56.55;99691.97;5033516;28;20025;-88
2022/05/02 05:37:20;;;;;;;10.40;8.77;;;;;;;13.97;56.33;99697.75;5033459;28;20035;-89
2022/05/02 05:40:09;;;;;;;15.48;8.68;;;;;;;13.92;56.43;99676.28;5015701;28;20029;-89
2022/05/02 05:42:56;;;;;;;10.85;8.77;;;;;;;14.23;55.75;99707.72;5033389;28;20457;-89
2022/05/02 05:45:37;;;;;;;10.35;7.63;;;;;;;14.30;55.86;99708.56;5015642;28;20072;-89
2022/05/02 05:48:28;;;;;;;12.13;8.23;;;;;;;14.40;55.35;99705.53;5015758;28;20029;-88
2022/05/02 05:51:22;;;;;;;10.95;7.55;;;;;;;14.18;54.52;99646.41;5015632;28;20026;-89
2022/05/02 05:54:06;;;;;;;12.80;7.07;;;;;;;14.52;54.27;99699.47;4980651;28;20037;-88
2022/05/02 05:56:47;;;;;;;12.82;8.30;;;;;;;14.56;54.28;99714.00;5015741;28;20022;-89
2022/05/02 05:59:28;;;;;;;9.88;7.55;;;;;;;13.65;53.61;99540.00;5015775;28;20256;-88
2022/05/02 06:02:06;;;;;;;7.80;6.65;;;;;;;14.54;53.70;99696.63;5033226;28;20029;-89
2022/05/02 06:04:33;;;;;;;8.80;6.57;;;;;;;14.36;53.18;99653.81;5033372;28;20025;-88
2022/05/02 06:07:00;;;;;;;9.00;6.50;;;;;;;14.81;52.95;99694.84;5014565;28;20108;-89
2022/05/02 06:09:28;;;;;;;10.93;7.40;;;;;;;14.87;52.41;99710.84;5033146;28;20021;-88
2022/05/02 06:11:57;;;;;;;11.73;6.97;;;;;;;14.95;52.27;99709.81;5032930;28;20095;-89
2022/05/02 06:14:27;;;;;;;11.75;5.90;;;;;;;14.47;51.55;99624.88;5015273;28;20104;-88
2022/05/02 06:19:58;;;;;;;13.48;6.93;;;;;;;15.08;51.46;99706.34;4991634;28;20037;-88
2022/05/02 06:22:27;;;;;;;7.22;5.60;;;;;;;14.89;51.02;99660.94;5008515;28;20414;-88
2022/05/02 06:24:55;;;;;;;8.30;5.78;;;;;;;13.83;50.56;99489.84;5033008;28;20059;-88
2022/05/02 06:27:20;;;;;;;7.80;5.30;;;;;;;14.82;50.48;99628.19;5015189;28;20024;-87
2022/05/02 06:29:46;;;;;;;7.72;5.07;;;;;;;15.39;50.13;99706.56;5015362;28;20037;-88
2022/05/02 06:32:14;;;;;;;9.18;5.43;;;;;;;15.21;49.81;99707.19;5032593;28;20029;-88
2022/05/02 06:34:40;;;;;;;8.05;5.97;;;;;;;15.01;49.82;99657.66;5032446;28;20025;-88
2022/05/02 06:37:41;;;;;;;9.05;5.68;;;;;;;14.50;49.76;99559.88;5014345;28;20487;-88
2022/05/02 06:40:18;;;;;;;10.23;6.00;;;;;;;14.60;49.90;99585.03;5014638;28;20025;-88
2022/05/02 06:42:55;;;;;;;6.55;5.15;;;;;;;15.58;50.16;99720.91;5014356;28;20021;-88
2022/05/02 06:45:23;;;;;;;7.32;5.13;;;;;;;15.65;49.67;99719.09;5014365;28;20029;-88
2022/05/02 06:47:59;;;;;;;6.70;5.93;;;;;;;14.39;49.61;99502.81;5032547;28;20029;-88
2022/05/02 06:50:29;;;;;;;10.48;6.38;;;;;;;15.54;49.57;99669.09;5032592;28;20026;-88
2022/05/02 06:53:00;;;;;;;8.15;6.93;;;;;;;15.81;49.56;99710.69;5032676;28;20088;-88
2022/05/02 06:55:44;;;;;;;9.95;5.90;;;;;;;15.92;49.68;99709.22;5032428;28;20029;-88
2022/05/02 06:58:33;;;;;;;7.10;5.70;;;;;;;15.86;48.86;99689.56;5014310;28;20049;-87
2022/05/02 07:01:19;;;;;;;16.17;6.70;;;;;;;15.98;48.96;99696.91;5032134;28;20463;-88
2022/05/02 07:04:00;;;;;;;6.95;5.57;;;;;;;16.27;48.76;99695.59;5014165;28;20521;-88
2022/05/02 07:06:42;;;;;;;6.95;5.38;;;;;;;16.41;48.26;99705.19;5031829;28;20126;-89
2022/05/02 07:09:12;;;;;;;6.72;5.43;;;;;;;16.55;48.02;99706.78;5031678;28;20028;-87
2022/05/02 07:11:56;;;;;;;7.60;4.90;;;;;;;16.65;47.74;99703.63;5031673;28;20021;-88
2022/05/02 07:14:35;;;;;;;5.78;4.50;;;;;;;16.39;47.54;99648.63;5013833;28;20036;-88
2022/05/02 07:17:07;;;;;;;6.32;4.30;;;;;;;16.68;47.43;99663.25;5032033;28;20509;-88
2022/05/02 07:20:03;;;;;;;6.30;5.03;;;;;;;16.90;47.40;99685.88;5014805;28;20052;-88
2022/05/02 07:22:34;;;;;;;5.35;4.78;;;;;;;16.98;47.28;99679.47;5022108;28;20041;-88
2022/05/02 07:25:07;;;;;;;;;;;;;;;17.01;47.08;99677.19;5015226;28;20021;-88
2022/05/02 07:28:17;;;;;;;5.80;4.03;;;;;;;17.20;46.50;99670.09;5032261;28;19915;-88
2022/05/02 07:30:45;;;;;;;9.25;4.50;;;;;;;16.98;45.89;99623.44;5032033;28;20060;-88
2022/05/02 07:33:12;;;;;;;5.40;3.90;;;;;;;17.11;45.87;99626.84;5031531;28;20417;-86
2022/05/02 07:35:40;;;;;;;6.03;4.55;;;;;;;17.63;45.34;99664.75;5031439;28;20482;-88
2022/05/02 07:38:07;;;;;;;7.40;3.83;;;;;;;17.31;44.63;99613.34;5013939;28;20429;-88
2022/05/02 07:40:33;;;;;;;7.40;3.72;;;;;;;17.44;44.07;99634.56;5031616;28;20040;-88
2022/05/02 07:43:00;;;;;;;5.68;3.60;;;;;;;16.99;44.44;99561.06;5031446;28;20033;-86
2022/05/02 07:45:30;;;;;;;10.43;4.10;;;;;;;17.38;44.38;99618.59;5031571;28;20041;-88
2022/05/02 07:48:04;;;;;;;5.13;3.65;;;;;;;17.06;44.33;99572.50;5013627;28;20018;-88
2022/05/02 07:50:31;;;;;;;4.80;3.20;;;;;;;17.66;44.26;99656.34;5031395;28;20095;-86
2022/05/02 07:52:58;;;;;;;7.15;3.95;;;;;;;17.68;44.47;99654.25;5031036;28;20147;-86
2022/05/02 07:55:24;;;;;;;6.07;3.80;;;;;;;17.76;44.25;99640.63;5030997;28;20070;-86
2022/05/02 07:57:51;;;;;;;5.53;3.95;;;;;;;17.58;44.02;99608.53;5013419;28;20045;-86
2022/05/02 08:00:17;;;;;;;6.57;3.70;;;;;;;17.78;43.94;99629.72;5013493;28;20025;-86
2022/05/02 08:02:44;;;;;;;4.68;3.80;;;;;;;17.24;43.86;99545.06;5014065;28;20034;-86
2022/05/02 08:05:10;;;;;;;6.05;4.13;;;;;;;17.38;43.74;99509.19;5014357;28;20034;-86
2022/05/02 08:07:40;;;;;;;4.47;3.60;;;;;;;17.63;43.16;99552.63;5014267;28;20140;-86
2022/05/02 08:10:33;;;;;;;7.72;3.70;;;;;;;18.20;42.63;99624.50;5032154;28;20079;-85
2022/05/02 08:13:07;;;;;;;6.60;3.60;;;;;;;18.26;42.80;99615.59;5014003;28;20047;-85
2022/05/02 08:15:38;;;;;;;4.68;3.63;;;;;;;18.43;42.69;99606.72;5014139;28;20116;-86
2022/05/02 08:18:28;;;;;;;3.67;3.38;;;;;;;18.68;42.39;99597.78;5013913;28;20083;-86
2022/05/02 08:21:00;;;;;;;7.07;4.10;;;;;;;18.74;42.41;99596.84;5013700;28;20045;-86
2022/05/02 08:29:22;;;;;;;6.82;4.47;;;;;;;18.68;42.55;99593.22;5033362;28;20091;-86
2022/05/02 08:31:59;;;;;;;5.53;3.97;;;;;;;18.18;42.55;99471.59;5017543;28;20033;-86
2022/05/02 08:34:41;;;;;;;6.10;3.60;;;;;;;18.87;42.11;99555.69;5035159;28;20025;-86
2022/05/02 08:37:38;;;;;;;6.20;3.65;;;;;;;19.23;41.94;99568.03;5017518;28;20029;-86
2022/05/02 08:40:24;;;;;;;4.75;3.80;;;;;;;19.26;42.03;99573.72;5017182;28;20052;-86
2022/05/02 08:43:27;;;;;;;5.55;4.20;;;;;;;19.48;41.54;99554.41;5017777;28;20031;-86
2022/05/02 08:46:27;;;;;;;6.40;3.75;;;;;;;19.48;41.27;99560.59;5035195;28;20021;-86
2022/05/02 08:49:38;;;;;;;4.88;3.92;;;;;;;19.39;41.22;99547.78;5036889;28;20025;-88
2022/05/02 08:52:12;;;;;;;6.07;3.65;;;;;;;19.57;41.00;99553.84;5052404;28;20032;-84
2022/05/02 08:55:05;;;;;;;7.63;3.33;;;;;;;19.81;39.64;99541.19;5052497;28;20026;-83
2022/05/02 08:57:50;;;;;;;6.00;3.70;;;;;;;19.81;40.27;99543.06;5034227;28;20038;-84
2022/05/02 09:00:47;;;;;;;8.27;3.90;;;;;;;19.50;40.14;99498.75;5033262;28;20522;-87
2022/05/02 09:03:43;;;;;;;3.88;3.40;;;;;;;19.90;39.85;99538.94;5020632;28;20034;-87
2022/05/02 09:06:08;;;;;;;5.30;3.75;;;;;;;20.23;38.97;99540.94;5017068;28;20099;-87
2022/05/02 09:08:55;;;;;;;6.10;3.20;;;;;;;20.31;38.72;99536.00;5017668;28;20568;-87
2022/05/02 09:11:34;;;;;;;5.43;2.88;;;;;;;20.47;38.15;99525.56;5017118;28;20029;-87
2022/05/02 09:14:18;;;;;;;5.82;2.95;;;;;;;20.54;38.19;99528.88;5035583;28;20163;-87
2022/05/02 09:16:49;;;;;;;5.68;3.42;;;;;;;20.54;37.98;99531.56;5016889;28;20065;-87
2022/05/02 09:19:18;;;;;;;5.85;3.80;;;;;;;20.71;37.88;99527.03;5016431;28;20026;-87
2022/05/02 09:22:17;;;;;;;3.40;3.10;;;;;;;20.91;37.69;99513.94;5033959;28;20098;-87
2022/05/02 09:25:03;;;;;;;9.88;3.60;;;;;;;21.01;37.50;99515.16;5016680;28;20441;-87
2022/05/02 09:28:15;;;;;;;5.82;3.13;;;;;;;21.14;37.58;99514.78;5033158;28;20056;-87
2022/05/02 09:31:03;;;;;;;7.60;4.90;;;;;;;20.96;37.78;99523.13;5030543;28;20044;-87
2022/05/02 09:33:36;;;;;;;5.93;3.83;;;;;;;20.62;37.97;99533.84;5020899;28;20099;-87
2022/05/02 09:36:09;;;;;;;4.38;3.50;;;;;;;20.45;38.31;99522.31;5015529;28;20083;-87
2022/05/02 09:38:43;;;;;;;6.80;4.20;;;;;;;20.27;38.78;99520.63;5033876;28;20026;-87
2022/05/02 09:41:48;;;;;;;6.85;4.18;;;;;;;19.32;39.24;99403.31;5015889;28;20494;-86
2022/05/02 09:50:37;;;;;;;6.93;4.32;;;;;;;19.66;39.83;99517.59;5034342;28;20044;-85
2022/05/02 09:53:04;;;;;;;8.50;4.53;;;;;;;19.65;40.04;99532.03;5034296;28;20061;-86
2022/05/02 09:59:01;;;;;;;6.53;3.50;;;;;;;19.48;40.01;99531.13;5051320;28;20065;-86
2022/05/02 10:01:31;;;;;;;5.35;4.63;;;;;;;19.05;40.10;99459.25;5052017;28;20037;-87
2022/05/02 10:04:08;;;;;;;6.53;5.03;;;;;;;19.84;39.72;99513.94;5035766;28;20022;-87
2022/05/02 10:06:46;;;;;;;11.88;4.20;;;;;;;20.34;38.57;99482.94;5047674;28;20026;-86
2022/05/02 10:09:33;;;;;;;4.90;3.90;;;;;;;21.14;37.85;99514.78;5015215;28;20517;-86
2022/05/02 10:12:26;;;;;;;5.72;2.90;;;;;;;21.32;36.69;99514.53;5032950;28;20087;-87
2022/05/02 10:14:56;;;;;;;3.88;3.33;;;;;;;21.31;37.21;99515.59;5015169;28;20112;-87
2022/05/02 10:17:39;;;;;;;6.90;3.33;;;;;;;21.06;37.41;99504.47;5033019;28;20049;-85
2022/05/02 10:20:05;;;;;;;6.07;4.15;;;;;;;20.88;37.49;99497.53;5033331;28;20117;-87
2022/05/02 10:23:02;;;;;;;5.35;3.58;;;;;;;20.86;37.82;99491.59;5033526;28;20049;-87
2022/05/02 10:25:36;;;;;;;7.20;4.88;;;;;;;20.30;38.05;99437.84;5033560;28;20053;-87
2022/05/02 10:28:24;;;;;;;5.28;3.55;;;;;;;20.05;37.82;99420.50;5014960;28;20018;-87
2022/05/02 10:30:50;;;;;;;5.85;3.10;;;;;;;20.36;38.54;99484.31;5032897;28;20102;-87
2022/05/02 10:33:24;;;;;;;6.97;3.78;;;;;;;19.64;38.41;99385.78;5015190;28;20032;-87
2022/05/02 10:35:51;;;;;;;3.95;3.20;;;;;;;20.17;38.69;99474.88;5032986;28;20025;-87
2022/05/02 10:38:27;;;;;;;3.90;2.92;;;;;;;19.68;38.71;99408.34;5032705;28;20021;-87
2022/05/02 10:41:07;;;;;;;5.60;3.00;;;;;;;19.39;38.89;99361.19;5032519;28;20025;-88
2022/05/02 10:43:36;;;;;;;6.90;3.70;;;;;;;20.02;39.13;99467.34;5015237;28;20108;-87
2022/05/02 10:46:02;;;;;;;4.90;4.00;;;;;;;19.98;39.23;99468.88;5032543;28;20079;-87
2022/05/02 10:48:39;;;;;;;4.68;3.63;;;;;;;19.76;39.16;99427.75;5014572;28;20471;-87
2022/05/02 10:51:12;;;;;;;7.93;4.10;;;;;;;19.40;39.40;99396.81;5032263;28;20040;-85
2022/05/02 10:54:48;;;;;;;5.18;3.20;;;;;;;19.79;39.50;99462.91;5014785;28;20108;-87
2022/05/02 10:57:39;;;;;;;7.78;3.75;;;;;;;19.95;39.22;99447.94;4944200;28;20663;-87
2022/05/02 11:00:10;;;;;;;5.95;3.70;;;;;;;19.82;39.29;99397.31;5031398;28;20053;-87
2022/05/02 11:02:38;;;;;;;4.47;3.30;;;;;;;20.63;38.20;99455.00;5032335;28;20056;-87
2022/05/02 11:05:14;;;;;;;6.90;3.28;;;;;;;20.48;37.69;99383.16;5014365;28;20026;-87
2022/05/02 11:07:54;;;;;;;4.72;3.58;;;;;;;21.02;37.41;99463.91;5014558;28;20025;-87
2022/05/02 11:10:21;;;;;;;4.30;3.90;;;;;;;21.04;36.88;99450.22;5014154;28;20040;-87
2022/05/02 11:12:51;;;;;;;7.07;3.45;;;;;;;21.08;36.91;99470.16;5031814;28;20025;-87
2022/05/02 11:15:21;;;;;;;5.60;3.53;;;;;;;20.29;36.91;99346.91;5031773;28;20029;-87
2022/05/02 11:18:07;;;;;;;4.95;3.63;;;;;;;20.90;36.76;99447.09;5031671;28;20392;-88
2022/05/02 11:21:12;;;;;;;4.88;3.80;;;;;;;20.55;37.14;99409.81;5014266;28;20483;-85
2022/05/02 11:24:16;;;;;;;7.10;4.85;;;;;;;20.78;37.41;99447.16;5031994;28;20490;-86
2022/05/02 11:26:49;;;;;;;5.35;4.60;;;;;;;20.65;37.55;99442.16;4977335;28;20395;-85
2022/05/02 11:29:25;;;;;;;6.55;4.78;;;;;;;20.24;38.04;99382.50;5031976;28;20017;-85
2022/05/02 11:32:01;;;;;;;6.50;4.53;;;;;;;20.81;37.85;99435.16;5031864;28;20474;-85
2022/05/02 11:34:51;;;;;;;6.38;4.43;;;;;;;21.03;37.83;99429.81;5014344;28;20025;-87
2022/05/02 11:37:55;;;;;;;5.40;4.25;;;;;;;21.25;37.03;99425.28;5031477;28;20057;-88
2022/05/02 11:40:33;;;;;;;6.68;4.13;;;;;;;21.22;37.21;99423.06;5014178;28;20455;-87
2022/05/02 11:42:59;;;;;;;4.00;3.47;;;;;;;21.27;36.78;99422.34;5031526;28;20072;-86
2022/05/02 11:46:09;;;;;;;5.28;3.63;;;;;;;20.99;36.69;99397.28;5013492;28;20022;-87
2022/05/02 11:49:13;;;;;;;4.40;3.28;;;;;;;21.03;36.78;99417.19;5013665;28;20401;-86
2022/05/02 11:51:50;;;;;;;4.50;3.70;;;;;;;20.98;37.08;99405.59;5031397;28;20048;-86
2022/05/02 11:54:27;;;;;;;4.43;3.05;;;;;;;20.92;37.40;99407.41;5031534;28;20529;-86
2022/05/02 11:57:10;;;;;;;5.32;4.07;;;;;;;20.35;37.34;99347.81;5031537;28;20387;-86
2022/05/02 11:59:54;;;;;;;5.68;3.13;;;;;;;20.67;37.33;99413.22;5031629;28;20040;-86
2022/05/02 12:02:41;;;;;;;6.30;4.20;;;;;;;20.65;37.30;99414.50;5014030;28;20053;-86
2022/05/02 12:05:21;;;;;;;7.55;4.25;;;;;;;20.69;37.18;99408.41;5034157;28;20498;-86
2022/05/02 12:07:57;;;;;;;11.95;8.63;;;;;;;18.59;36.81;99057.13;5035664;28;20033;-86
2022/05/02 12:10:47;;;;;;;8.27;4.85;;;;;;;20.72;36.53;99350.75;5017688;28;20035;-86
2022/05/02 12:13:18;;;;;;;3.95;3.33;;;;;;;20.74;35.95;99322.63;5017481;28;20068;-85
2022/05/02 12:16:16;;;;;;;4.85;3.30;;;;;;;21.35;35.41;99389.69;5017732;28;20465;-85
2022/05/02 12:18:49;;;;;;;10.20;6.20;;;;;;;21.14;35.44;99321.50;5016351;28;20037;-87
2022/05/02 12:21:31;;;;;;;4.82;3.75;;;;;;;21.82;35.09;99389.91;5035266;28;20043;-87
2022/05/02 12:23:58;;;;;;;4.78;3.47;;;;;;;21.33;35.15;99363.06;5035707;28;20025;-85
2022/05/02 12:26:25;;;;;;;4.47;3.30;;;;;;;21.26;34.92;99357.09;5035371;28;20045;-86